Time;durP1;ratioP1;P1;durP2;ratioP2;P2;SDS_P1;SDS_P2;PMS_P1;PMS_P2;Temp;Humidity;BMP_temperature;BMP_pressure;BME280_temperature;BME280_humidity;BME280_pressure;Samples;Min_cycle;Max_cycle;Signal;HPM_P1;HPM_P2
2023/09/22 00:01:46;;;;;;;0.60;0.40;;;;;;;;;;5073122;28;20063;-62
2023/09/22 00:04:15;;;;;;;1.00;0.65;;;;;;;;;;5072486;28;20052;-62
2023/09/22 00:06:42;;;;;;;1.00;0.52;;;;;;;;;;5072653;28;20044;-62
2023/09/22 00:09:12;;;;;;;0.80;0.40;;;;;;;;;;5073643;28;20059;-62
2023/09/22 00:11:38;;;;;;;1.45;0.50;;;;;;;;;;5072664;28;20068;-61
2023/09/22 00:14:07;;;;;;;1.25;0.60;;;;;;;;;;5072106;28;20060;-62
2023/09/22 00:16:38;;;;;;;2.63;0.50;;;;;;;;;;5072723;28;20056;-61
2023/09/22 00:19:08;;;;;;;1.20;0.57;;;;;;;;;;5078009;28;20055;-61
2023/09/22 00:21:35;;;;;;;1.42;0.50;;;;;;;;;;5089752;28;21912;-61
2023/09/22 00:24:02;;;;;;;2.28;0.68;;;;;;;;;;5073673;28;20398;-63
2023/09/22 00:26:29;;;;;;;1.40;0.80;;;;;;;;;;5072283;28;20049;-61
2023/09/22 00:29:03;;;;;;;1.58;0.80;;;;;;;;;;5072748;28;20056;-61
2023/09/22 00:31:30;;;;;;;1.65;0.70;;;;;;;;;;5072644;28;20060;-61
2023/09/22 00:33:57;;;;;;;1.67;0.80;;;;;;;;;;5078277;28;20048;-62
2023/09/22 00:36:28;;;;;;;1.30;0.80;;;;;;;;;;5092791;28;20059;-61
2023/09/22 00:38:55;;;;;;;1.75;0.80;;;;;;;;;;5090867;28;20068;-61
2023/09/22 00:41:21;;;;;;;1.80;0.70;;;;;;;;;;5072011;28;20051;-61
2023/09/22 00:43:48;;;;;;;2.00;0.90;;;;;;;;;;5070418;28;20057;-61
2023/09/22 00:46:16;;;;;;;1.63;0.70;;;;;;;;;;5072410;28;20048;-61
2023/09/22 00:48:43;;;;;;;1.20;0.77;;;;;;;;;;5072548;28;20056;-61
2023/09/22 00:51:10;;;;;;;1.23;0.88;;;;;;;;;;5072041;28;20048;-61
2023/09/22 00:53:40;;;;;;;2.00;0.88;;;;;;;;;;5072602;28;20063;-61
2023/09/22 00:56:13;;;;;;;1.15;0.70;;;;;;;;;;5072184;28;20059;-61
2023/09/22 00:58:40;;;;;;;2.22;1.00;;;;;;;;;;5071290;28;20068;-60
2023/09/22 01:01:08;;;;;;;2.05;1.13;;;;;;;;;;5071871;28;20493;-60
2023/09/22 01:03:37;;;;;;;1.33;0.80;;;;;;;;;;5072167;28;20063;-60
2023/09/22 01:06:04;;;;;;;1.55;0.88;;;;;;;;;;5072193;28;20060;-61
2023/09/22 01:08:31;;;;;;;1.55;0.90;;;;;;;;;;5071973;28;20063;-61
2023/09/22 01:10:59;;;;;;;1.90;0.95;;;;;;;;;;5073918;28;20048;-60
2023/09/22 01:13:30;;;;;;;1.30;0.80;;;;;;;;;;5072308;28;20059;-60
2023/09/22 01:15:57;;;;;;;1.63;1.00;;;;;;;;;;5072411;28;20055;-60
2023/09/22 01:18:25;;;;;;;1.92;1.13;;;;;;;;;;5072344;28;20056;-60
2023/09/22 01:20:54;;;;;;;1.98;0.93;;;;;;;;;;5091878;28;20052;-60
2023/09/22 01:23:27;;;;;;;1.50;1.00;;;;;;;;;;5092445;28;20493;-60
2023/09/22 01:25:54;;;;;;;1.98;0.80;;;;;;;;;;5074284;28;20053;-62
2023/09/22 01:28:23;;;;;;;2.90;0.85;;;;;;;;;;5076513;28;20052;-60
2023/09/22 01:30:50;;;;;;;1.50;0.85;;;;;;;;;;5075656;28;20056;-60
2023/09/22 01:33:17;;;;;;;5.18;1.02;;;;;;;;;;5075706;28;20056;-60
2023/09/22 01:35:44;;;;;;;2.80;1.15;;;;;;;;;;5075481;28;20053;-61
2023/09/22 01:38:11;;;;;;;1.60;0.90;;;;;;;;;;5093711;28;20056;-60
2023/09/22 01:40:40;;;;;;;2.67;1.27;;;;;;;;;;5079862;28;20409;-60
2023/09/22 01:43:06;;;;;;;1.90;1.02;;;;;;;;;;5075047;28;20052;-60
2023/09/22 01:45:33;;;;;;;2.00;0.90;;;;;;;;;;5075601;28;20052;-60
2023/09/22 01:48:00;;;;;;;1.77;1.15;;;;;;;;;;5075600;28;20056;-61
2023/09/22 01:50:27;;;;;;;1.38;0.88;;;;;;;;;;5075468;28;20052;-60
2023/09/22 01:52:53;;;;;;;2.47;1.00;;;;;;;;;;5075362;28;20059;-60
2023/09/22 01:55:20;;;;;;;2.08;0.73;;;;;;;;;;5074990;28;20053;-60
2023/09/22 01:57:50;;;;;;;1.83;0.85;;;;;;;;;;5075025;28;20052;-60
2023/09/22 02:00:18;;;;;;;1.60;0.90;;;;;;;;;;5075085;28;20060;-60
2023/09/22 02:02:45;;;;;;;1.53;0.70;;;;;;;;;;5075263;28;20052;-60
2023/09/22 02:05:14;;;;;;;2.95;1.35;;;;;;;;;;5074981;28;20060;-60
2023/09/22 02:07:41;;;;;;;1.25;0.73;;;;;;;;;;5074707;28;20394;-60
2023/09/22 02:10:09;;;;;;;1.60;0.82;;;;;;;;;;5074538;28;20059;-61
2023/09/22 02:12:36;;;;;;;1.73;0.70;;;;;;;;;;5074990;28;20052;-60
2023/09/22 02:15:05;;;;;;;2.13;0.95;;;;;;;;;;5074301;28;20048;-60
2023/09/22 02:17:32;;;;;;;1.40;0.70;;;;;;;;;;5074931;28;20068;-60
2023/09/22 02:19:59;;;;;;;2.13;1.23;;;;;;;;;;5087133;28;21020;-60
2023/09/22 02:22:25;;;;;;;3.40;1.25;;;;;;;;;;5095144;28;20052;-60
2023/09/22 02:24:52;;;;;;;1.75;1.10;;;;;;;;;;5085699;28;20056;-60
2023/09/22 02:27:19;;;;;;;1.85;1.08;;;;;;;;;;5074179;28;20508;-60
2023/09/22 02:29:46;;;;;;;1.67;0.90;;;;;;;;;;5074623;28;20401;-61
2023/09/22 02:32:14;;;;;;;6.07;1.40;;;;;;;;;;5074408;28;20048;-60
2023/09/22 02:34:41;;;;;;;1.75;1.00;;;;;;;;;;5074409;28;20049;-60
2023/09/22 02:37:10;;;;;;;1.67;1.10;;;;;;;;;;5093369;28;20055;-60
2023/09/22 02:39:36;;;;;;;1.73;1.00;;;;;;;;;;5086092;28;20059;-60
2023/09/22 02:42:03;;;;;;;1.85;1.08;;;;;;;;;;5073964;28;20052;-60
2023/09/22 02:44:35;;;;;;;3.83;1.13;;;;;;;;;;5088884;28;20052;-61
2023/09/22 02:47:02;;;;;;;11.55;1.67;;;;;;;;;;5094335;28;20491;-60
2023/09/22 02:49:35;;;;;;;4.43;1.30;;;;;;;;;;5094756;28;20051;-61
2023/09/22 02:52:04;;;;;;;2.75;1.50;;;;;;;;;;5091937;28;20097;-61
2023/09/22 02:54:30;;;;;;;1.83;1.30;;;;;;;;;;5083189;28;20052;-60
2023/09/22 02:56:57;;;;;;;2.30;1.27;;;;;;;;;;5073347;28;20056;-60
2023/09/22 02:59:24;;;;;;;3.47;2.15;;;;;;;;;;5073553;28;20417;-60
2023/09/22 03:01:51;;;;;;;1.60;1.08;;;;;;;;;;5073669;28;20071;-59
2023/09/22 03:04:18;;;;;;;2.97;1.85;;;;;;;;;;5073607;28;20059;-60
2023/09/22 03:06:47;;;;;;;3.25;1.33;;;;;;;;;;5072639;28;20049;-60
2023/09/22 03:09:17;;;;;;;3.10;1.17;;;;;;;;;;5074537;28;20048;-60
2023/09/22 03:11:44;;;;;;;3.15;1.75;;;;;;;;;;5073826;28;20053;-60
2023/09/22 03:14:11;;;;;;;3.55;1.33;;;;;;;;;;5073834;28;20470;-60
2023/09/22 03:16:37;;;;;;;4.03;1.83;;;;;;;;;;5073000;28;20049;-60
2023/09/22 03:19:07;;;;;;;1.80;0.90;;;;;;;;;;5079000;28;20044;-60
2023/09/22 03:21:36;;;;;;;1.73;1.20;;;;;;;;;;5093759;28;20048;-60
2023/09/22 03:24:06;;;;;;;2.40;1.30;;;;;;;;;;5088515;28;20059;-60
2023/09/22 03:26:35;;;;;;;1.63;0.80;;;;;;;;;;5073363;28;20055;-60
2023/09/22 03:29:04;;;;;;;3.17;1.25;;;;;;;;;;5073575;28;20053;-59
2023/09/22 03:31:31;;;;;;;1.60;1.00;;;;;;;;;;5073488;28;20059;-60
2023/09/22 03:33:59;;;;;;;2.17;1.45;;;;;;;;;;5073324;28;20509;-60
2023/09/22 03:36:30;;;;;;;1.55;0.90;;;;;;;;;;5073249;28;20051;-60
2023/09/22 03:38:58;;;;;;;2.13;1.00;;;;;;;;;;5074434;28;20045;-60
2023/09/22 03:41:29;;;;;;;1.75;1.10;;;;;;;;;;5073405;28;20056;-59
2023/09/22 03:43:58;;;;;;;3.35;0.90;;;;;;;;;;5072495;28;20063;-60
2023/09/22 03:46:25;;;;;;;2.25;1.17;;;;;;;;;;5072629;28;20049;-60
2023/09/22 03:48:51;;;;;;;2.05;1.00;;;;;;;;;;5072439;28;20075;-59
2023/09/22 03:51:18;;;;;;;1.92;1.23;;;;;;;;;;5072812;28;20052;-59
2023/09/22 03:53:45;;;;;;;2.55;1.30;;;;;;;;;;5075064;28;20048;-59
2023/09/22 03:56:12;;;;;;;1.40;0.80;;;;;;;;;;5089655;28;20389;-59
2023/09/22 03:58:43;;;;;;;3.00;1.30;;;;;;;;;;5093113;28;20052;-59
2023/09/22 04:01:10;;;;;;;2.42;1.17;;;;;;;;;;5093315;28;20063;-59
2023/09/22 04:03:37;;;;;;;2.70;1.20;;;;;;;;;;5093332;28;20052;-59
2023/09/22 04:06:07;;;;;;;2.03;1.35;;;;;;;;;;5093041;28;20400;-59
2023/09/22 04:08:37;;;;;;;9.30;1.90;;;;;;;;;;5089908;28;20489;-59
2023/09/22 04:11:07;;;;;;;3.70;1.63;;;;;;;;;;5084035;28;20512;-59
2023/09/22 04:13:36;;;;;;;2.78;0.90;;;;;;;;;;5072012;28;20052;-59
2023/09/22 04:16:05;;;;;;;3.13;1.00;;;;;;;;;;5072384;28;20055;-60
2023/09/22 04:18:32;;;;;;;1.65;0.80;;;;;;;;;;5073613;28;20060;-60
2023/09/22 04:21:01;;;;;;;3.72;0.90;;;;;;;;;;5092622;28;20048;-60
2023/09/22 04:23:28;;;;;;;2.75;1.10;;;;;;;;;;5087111;28;20052;-59
2023/09/22 04:25:55;;;;;;;1.50;0.80;;;;;;;;;;5073600;28;20059;-59
2023/09/22 04:28:23;;;;;;;1.33;0.80;;;;;;;;;;5072297;28;20054;-60
2023/09/22 04:30:50;;;;;;;1.63;0.90;;;;;;;;;;5081906;28;20080;-59
2023/09/22 04:33:19;;;;;;;1.95;0.80;;;;;;;;;;5092795;28;20134;-60
2023/09/22 04:35:48;;;;;;;1.50;0.70;;;;;;;;;;5092947;28;20059;-60
2023/09/22 04:38:19;;;;;;;1.77;0.60;;;;;;;;;;5084956;28;20056;-60
2023/09/22 04:40:46;;;;;;;2.05;1.20;;;;;;;;;;5072390;28;20516;-59
2023/09/22 04:43:13;;;;;;;1.50;0.52;;;;;;;;;;5072246;28;20425;-59
2023/09/22 04:45:40;;;;;;;2.42;0.95;;;;;;;;;;5072608;28;20481;-60
2023/09/22 04:48:07;;;;;;;2.03;0.80;;;;;;;;;;5072592;28;20048;-60
2023/09/22 04:50:36;;;;;;;1.25;0.77;;;;;;;;;;5072477;28;20061;-61
2023/09/22 04:53:03;;;;;;;1.85;0.75;;;;;;;;;;5072252;28;20052;-60
2023/09/22 04:55:34;;;;;;;1.67;1.05;;;;;;;;;;5072561;28;20057;-59
2023/09/22 04:58:01;;;;;;;3.03;1.10;;;;;;;;;;5072313;28;20398;-60
2023/09/22 05:00:28;;;;;;;1.45;0.90;;;;;;;;;;5074412;28;20060;-60
2023/09/22 05:02:55;;;;;;;1.35;0.75;;;;;;;;;;5074734;28;20048;-61
2023/09/22 05:05:22;;;;;;;2.70;1.27;;;;;;;;;;5075493;28;20056;-59
2023/09/22 05:07:51;;;;;;;2.67;1.02;;;;;;;;;;5076898;28;20607;-59
2023/09/22 05:10:18;;;;;;;2.60;0.70;;;;;;;;;;5077964;28;20040;-60
2023/09/22 05:12:45;;;;;;;1.08;0.55;;;;;;;;;;5093971;28;20048;-60
2023/09/22 05:15:12;;;;;;;1.00;0.60;;;;;;;;;;5085603;28;20048;-59
2023/09/22 05:17:38;;;;;;;1.55;0.85;;;;;;;;;;5085155;28;20397;-59
2023/09/22 05:20:12;;;;;;;2.05;0.88;;;;;;;;;;5076291;28;20059;-60
2023/09/22 05:22:38;;;;;;;2.08;1.17;;;;;;;;;;5095131;28;20055;-60
2023/09/22 05:25:07;;;;;;;1.30;0.60;;;;;;;;;;5076201;28;20052;-60
2023/09/22 05:27:35;;;;;;;2.40;0.80;;;;;;;;;;5076211;28;20049;-60
2023/09/22 05:30:02;;;;;;;2.17;0.90;;;;;;;;;;5084676;28;20051;-59
2023/09/22 05:32:29;;;;;;;2.95;0.95;;;;;;;;;;5091295;28;20052;-60
2023/09/22 05:34:56;;;;;;;1.30;0.70;;;;;;;;;;5075195;28;20049;-61
2023/09/22 05:37:23;;;;;;;1.50;1.00;;;;;;;;;;5075313;28;20048;-60
2023/09/22 05:39:51;;;;;;;1.33;0.80;;;;;;;;;;5088592;28;20048;-59
2023/09/22 05:42:19;;;;;;;1.90;0.70;;;;;;;;;;5084083;28;20055;-59
2023/09/22 05:44:46;;;;;;;2.30;0.80;;;;;;;;;;5075545;28;20052;-60
2023/09/22 05:47:13;;;;;;;2.92;0.65;;;;;;;;;;5075250;28;20048;-60
2023/09/22 05:49:39;;;;;;;2.15;0.95;;;;;;;;;;5075360;28;20059;-59
2023/09/22 05:52:06;;;;;;;2.20;0.88;;;;;;;;;;5090057;28;20063;-60
2023/09/22 05:54:33;;;;;;;1.35;0.65;;;;;;;;;;5083729;28;20063;-60
2023/09/22 05:57:00;;;;;;;2.80;0.70;;;;;;;;;;5087444;28;20044;-60
2023/09/22 05:59:29;;;;;;;1.55;0.63;;;;;;;;;;5082446;28;20063;-60
2023/09/22 06:01:57;;;;;;;1.90;0.77;;;;;;;;;;5075123;28;20067;-60
2023/09/22 06:04:24;;;;;;;2.50;0.90;;;;;;;;;;5075450;28;20052;-60
2023/09/22 06:06:53;;;;;;;1.88;0.60;;;;;;;;;;5074764;28;20059;-60
2023/09/22 06:09:21;;;;;;;5.57;1.20;;;;;;;;;;5074622;28;20481;-59
2023/09/22 06:11:48;;;;;;;1.65;0.90;;;;;;;;;;5073227;28;20068;-60
2023/09/22 06:14:15;;;;;;;1.75;0.98;;;;;;;;;;5074168;28;20048;-60
2023/09/22 06:16:43;;;;;;;2.58;1.00;;;;;;;;;;5074411;28;20409;-59
2023/09/22 06:19:10;;;;;;;1.10;0.70;;;;;;;;;;5080789;28;20052;-60
2023/09/22 06:21:38;;;;;;;2.28;0.98;;;;;;;;;;5084610;28;20055;-59
2023/09/22 06:24:06;;;;;;;1.65;0.90;;;;;;;;;;5074702;28;20052;-58
2023/09/22 06:26:33;;;;;;;1.52;0.60;;;;;;;;;;5087671;28;20056;-50
2023/09/22 06:28:59;;;;;;;0.93;0.50;;;;;;;;;;5085870;28;20055;-63
2023/09/22 06:31:26;;;;;;;1.30;0.55;;;;;;;;;;5085913;28;20059;-62
2023/09/22 06:33:54;;;;;;;1.52;0.65;;;;;;;;;;5081734;28;20666;-62
2023/09/22 06:36:22;;;;;;;1.33;0.93;;;;;;;;;;5078723;28;20056;-62
2023/09/22 06:38:50;;;;;;;1.55;0.80;;;;;;;;;;5087147;28;20052;-62
2023/09/22 06:41:17;;;;;;;1.52;0.50;;;;;;;;;;5087087;28;20052;-62
2023/09/22 06:43:44;;;;;;;0.95;0.50;;;;;;;;;;5085047;28;20052;-62
2023/09/22 06:46:11;;;;;;;1.20;0.60;;;;;;;;;;5086966;28;20071;-63
2023/09/22 06:48:38;;;;;;;1.48;0.88;;;;;;;;;;5086971;28;20047;-63
2023/09/22 06:51:13;;;;;;;3.92;0.82;;;;;;;;;;5086170;28;20532;-62
2023/09/22 06:53:40;;;;;;;1.38;0.63;;;;;;;;;;5085317;28;20047;-62
2023/09/22 06:56:09;;;;;;;0.80;0.40;;;;;;;;;;5086187;28;20063;-62
2023/09/22 06:58:37;;;;;;;1.38;0.50;;;;;;;;;;5087886;28;20067;-63
2023/09/22 07:01:07;;;;;;;0.47;0.30;;;;;;;;;;5086752;28;20056;-62
2023/09/22 07:03:34;;;;;;;0.90;0.50;;;;;;;;;;5087050;28;20067;-63
2023/09/22 07:06:01;;;;;;;1.35;0.60;;;;;;;;;;5088311;28;20059;-63
2023/09/22 07:08:30;;;;;;;1.33;0.77;;;;;;;;;;5088620;28;20044;-62
2023/09/22 07:11:00;;;;;;;1.40;0.70;;;;;;;;;;5085676;28;20055;-63
2023/09/22 07:13:29;;;;;;;2.10;0.98;;;;;;;;;;5086089;28;20063;-62
2023/09/22 07:15:56;;;;;;;1.02;0.70;;;;;;;;;;5085343;28;20497;-62
2023/09/22 07:18:24;;;;;;;0.68;0.40;;;;;;;;;;5082230;28;20519;-62
2023/09/22 07:20:51;;;;;;;1.90;0.63;;;;;;;;;;5087599;28;20056;-62
2023/09/22 07:23:17;;;;;;;0.90;0.50;;;;;;;;;;5085568;28;20051;-62
2023/09/22 07:25:46;;;;;;;0.77;0.50;;;;;;;;;;5084835;28;20059;-62
2023/09/22 07:28:13;;;;;;;0.97;0.60;;;;;;;;;;5085780;28;20051;-62
2023/09/22 07:30:39;;;;;;;1.50;0.65;;;;;;;;;;5085630;28;20070;-62
2023/09/22 07:33:06;;;;;;;1.90;0.60;;;;;;;;;;5087126;28;20097;-62
2023/09/22 07:35:33;;;;;;;2.25;0.40;;;;;;;;;;5086589;28;20485;-63
2023/09/22 07:38:00;;;;;;;3.72;0.60;;;;;;;;;;5086954;28;20054;-62
2023/09/22 07:40:27;;;;;;;1.27;0.57;;;;;;;;;;5086191;28;20063;-62
2023/09/22 07:42:55;;;;;;;1.48;0.80;;;;;;;;;;5084685;28;20056;-62
2023/09/22 07:45:22;;;;;;;1.10;0.50;;;;;;;;;;5087243;28;20051;-62
2023/09/22 07:47:49;;;;;;;2.80;0.85;;;;;;;;;;5084309;28;20503;-62
2023/09/22 07:50:16;;;;;;;2.00;0.40;;;;;;;;;;5083732;28;20059;-62
2023/09/22 07:52:43;;;;;;;1.20;0.40;;;;;;;;;;5084272;28;20067;-62
2023/09/22 07:55:14;;;;;;;1.05;0.68;;;;;;;;;;5084148;28;20064;-62
2023/09/22 07:57:40;;;;;;;1.45;0.60;;;;;;;;;;5086513;28;20066;-63
2023/09/22 08:00:10;;;;;;;1.60;0.40;;;;;;;;;;5085591;28;20425;-61
2023/09/22 08:02:37;;;;;;;1.20;0.70;;;;;;;;;;5075927;28;20052;-62
2023/09/22 08:05:04;;;;;;;0.63;0.40;;;;;;;;;;5083725;28;20047;-63
2023/09/22 08:07:31;;;;;;;3.78;1.35;;;;;;;;;;5083077;28;20052;-63
2023/09/22 08:09:58;;;;;;;1.02;0.57;;;;;;;;;;5075986;28;20055;-62
2023/09/22 08:12:24;;;;;;;1.42;0.70;;;;;;;;;;5085567;28;20617;-62
2023/09/22 08:14:51;;;;;;;1.48;0.60;;;;;;;;;;5081516;28;20444;-62
2023/09/22 08:17:19;;;;;;;1.52;0.75;;;;;;;;;;5083104;28;20057;-62
2023/09/22 08:19:46;;;;;;;2.33;0.70;;;;;;;;;;5085025;28;20481;-62
2023/09/22 08:22:13;;;;;;;1.38;0.88;;;;;;;;;;5082514;28;20374;-62
2023/09/22 08:24:39;;;;;;;4.45;0.98;;;;;;;;;;5081255;28;21449;-63
2023/09/22 08:27:06;;;;;;;1.63;0.82;;;;;;;;;;5076950;28;20548;-63
2023/09/22 08:29:33;;;;;;;0.95;0.40;;;;;;;;;;5079154;28;20461;-63
2023/09/22 08:32:00;;;;;;;1.02;0.63;;;;;;;;;;5084416;28;20048;-63
2023/09/22 08:34:29;;;;;;;0.88;0.40;;;;;;;;;;5081421;28;20048;-63
2023/09/22 08:36:56;;;;;;;1.00;0.60;;;;;;;;;;5082149;28;20051;-62
2023/09/22 08:39:22;;;;;;;1.38;0.75;;;;;;;;;;5081022;28;20464;-63
2023/09/22 08:41:49;;;;;;;2.85;0.85;;;;;;;;;;5086259;28;20052;-62
2023/09/22 08:44:16;;;;;;;1.15;0.63;;;;;;;;;;5087219;28;20428;-63
2023/09/22 08:46:43;;;;;;;1.00;0.60;;;;;;;;;;5080950;28;20429;-63
2023/09/22 08:49:10;;;;;;;2.03;0.60;;;;;;;;;;5089030;28;20044;-63
2023/09/22 08:51:38;;;;;;;1.10;0.50;;;;;;;;;;5083066;28;20052;-63
2023/09/22 08:54:06;;;;;;;0.90;0.43;;;;;;;;;;5085724;28;20079;-63
2023/09/22 08:56:34;;;;;;;2.38;0.60;;;;;;;;;;5080858;28;20060;-62
2023/09/22 08:59:01;;;;;;;1.00;0.60;;;;;;;;;;5089053;28;20051;-64
2023/09/22 09:01:28;;;;;;;1.30;0.60;;;;;;;;;;5082554;28;20062;-62
2023/09/22 09:03:54;;;;;;;1.02;0.50;;;;;;;;;;5088147;28;20051;-63
2023/09/22 09:06:21;;;;;;;1.15;0.57;;;;;;;;;;5085313;28;20083;-62
2023/09/22 09:09:12;;;;;;;1.13;0.50;;;;;;;;;;5086055;28;20473;-63
2023/09/22 09:11:57;;;;;;;1.45;0.63;;;;;;;;;;5076899;28;20056;-62
2023/09/22 09:14:28;;;;;;;0.70;0.43;;;;;;;;;;5087325;28;20056;-62
2023/09/22 09:16:56;;;;;;;1.05;0.50;;;;;;;;;;5089564;28;20481;-62
2023/09/22 09:19:23;;;;;;;2.40;0.80;;;;;;;;;;5087199;28;20056;-62
2023/09/22 09:22:09;;;;;;;0.75;0.40;;;;;;;;;;5090433;28;20052;-62
2023/09/22 09:24:36;;;;;;;1.02;0.50;;;;;;;;;;5084763;28;20059;-62
2023/09/22 09:27:14;;;;;;;1.25;0.52;;;;;;;;;;5089113;28;20056;-63
2023/09/22 09:29:41;;;;;;;1.00;0.60;;;;;;;;;;5086729;28;20044;-62
2023/09/22 09:32:08;;;;;;;1.42;0.50;;;;;;;;;;5084568;28;20059;-62
2023/09/22 09:34:39;;;;;;;0.60;0.32;;;;;;;;;;5082815;28;20055;-62
2023/09/22 09:37:10;;;;;;;1.75;0.80;;;;;;;;;;5085371;28;20064;-63
2023/09/22 09:39:43;;;;;;;0.73;0.30;;;;;;;;;;5085659;28;20048;-62
2023/09/22 09:42:12;;;;;;;1.42;0.60;;;;;;;;;;5084711;28;20048;-62
2023/09/22 09:44:40;;;;;;;2.57;0.93;;;;;;;;;;5087426;28;20070;-61
2023/09/22 09:47:07;;;;;;;0.55;0.40;;;;;;;;;;5086864;28;20048;-62
2023/09/22 09:49:34;;;;;;;1.63;0.68;;;;;;;;;;5087581;28;20051;-62
2023/09/22 09:52:03;;;;;;;1.05;0.50;;;;;;;;;;5082320;28;20052;-63
2023/09/22 09:54:30;;;;;;;1.00;0.40;;;;;;;;;;5078537;28;20394;-62
2023/09/22 09:56:58;;;;;;;0.90;0.45;;;;;;;;;;5087648;28;20059;-62
2023/09/22 09:59:26;;;;;;;0.82;0.57;;;;;;;;;;5088757;28;20048;-61
2023/09/22 10:01:54;;;;;;;1.38;0.43;;;;;;;;;;5088161;28;20516;-62
2023/09/22 10:04:22;;;;;;;2.55;0.85;;;;;;;;;;5085797;28;20424;-61
2023/09/22 10:06:49;;;;;;;1.95;0.50;;;;;;;;;;5085198;28;20048;-62
2023/09/22 10:09:16;;;;;;;1.92;0.88;;;;;;;;;;5083057;28;20051;-62
2023/09/22 10:11:43;;;;;;;1.55;0.90;;;;;;;;;;5083912;28;20472;-61
2023/09/22 10:14:10;;;;;;;1.23;0.50;;;;;;;;;;5085544;28;20047;-61
2023/09/22 10:16:38;;;;;;;1.50;0.50;;;;;;;;;;5084142;28;20049;-62
2023/09/22 10:19:05;;;;;;;1.05;0.50;;;;;;;;;;5084565;28;20047;-61
2023/09/22 10:21:31;;;;;;;0.82;0.52;;;;;;;;;;5081587;28;20052;-62
2023/09/22 10:24:13;;;;;;;1.75;0.50;;;;;;;;;;5080914;28;20055;-61
2023/09/22 10:27:03;;;;;;;1.40;0.60;;;;;;;;;;5082023;28;20055;-62
2023/09/22 10:29:41;;;;;;;2.22;0.63;;;;;;;;;;5085558;28;20044;-62
2023/09/22 10:32:23;;;;;;;1.02;0.52;;;;;;;;;;5081919;28;20056;-62
2023/09/22 10:34:51;;;;;;;1.55;0.68;;;;;;;;;;5082528;28;20059;-62
2023/09/22 10:37:19;;;;;;;1.27;0.80;;;;;;;;;;5083688;28;20054;-62
2023/09/22 10:39:49;;;;;;;2.35;0.75;;;;;;;;;;5086738;28;20056;-61
2023/09/22 10:42:16;;;;;;;0.88;0.55;;;;;;;;;;5081261;28;20052;-62
2023/09/22 10:44:55;;;;;;;1.00;0.45;;;;;;;;;;5087430;28;20059;-62
2023/09/22 10:47:23;;;;;;;1.33;0.60;;;;;;;;;;5081993;28;20044;-61
2023/09/22 10:49:50;;;;;;;0.57;0.32;;;;;;;;;;5073771;28;20412;-61
2023/09/22 10:52:18;;;;;;;1.42;0.60;;;;;;;;;;5074901;28;20470;-61
2023/09/22 10:54:47;;;;;;;1.13;0.55;;;;;;;;;;5074218;28;20048;-61
2023/09/22 10:57:27;;;;;;;0.82;0.50;;;;;;;;;;5075676;28;20052;-62
2023/09/22 10:59:55;;;;;;;1.85;0.47;;;;;;;;;;5071456;28;20048;-61
2023/09/22 11:02:24;;;;;;;4.82;0.57;;;;;;;;;;5071880;28;20052;-61
2023/09/22 11:04:51;;;;;;;;;;;;;;;;;;5072931;28;20067;-61
2023/09/22 11:07:30;;;;;;;0.65;0.30;;;;;;;;;;5087255;28;19943;-60
2023/09/22 11:09:57;;;;;;;2.10;0.55;;;;;;;;;;5078581;28;20052;-61
2023/09/22 11:12:25;;;;;;;1.92;0.93;;;;;;;;;;5081560;28;20059;-60
2023/09/22 11:14:53;;;;;;;2.67;0.50;;;;;;;;;;5078793;28;20493;-61
2023/09/22 11:17:20;;;;;;;0.77;0.40;;;;;;;;;;5069573;28;20064;-60
2023/09/22 11:19:51;;;;;;;0.90;0.52;;;;;;;;;;5084871;28;20048;-62
2023/09/22 11:22:18;;;;;;;0.75;0.50;;;;;;;;;;5086358;28;20056;-61
2023/09/22 11:24:45;;;;;;;1.40;0.57;;;;;;;;;;5082437;28;20048;-61
2023/09/22 11:27:12;;;;;;;0.47;0.38;;;;;;;;;;5082693;28;20503;-61
2023/09/22 11:29:40;;;;;;;1.85;0.68;;;;;;;;;;5084114;28;20430;-61
2023/09/22 11:32:08;;;;;;;1.38;0.57;;;;;;;;;;5085906;28;20047;-61
2023/09/22 11:34:45;;;;;;;1.02;0.43;;;;;;;;;;5084371;28;20520;-61
2023/09/22 11:37:13;;;;;;;2.40;0.45;;;;;;;;;;5084566;28;20047;-61
2023/09/22 11:39:40;;;;;;;0.70;0.40;;;;;;;;;;5086399;28;20405;-62
2023/09/22 11:42:07;;;;;;;0.98;0.47;;;;;;;;;;5076268;28;20063;-61
2023/09/22 11:44:34;;;;;;;1.45;0.80;;;;;;;;;;5083088;28;20071;-60
2023/09/22 11:47:02;;;;;;;0.90;0.50;;;;;;;;;;5080338;28;20524;-60
2023/09/22 11:49:36;;;;;;;1.75;0.50;;;;;;;;;;5085440;28;20052;-61
2023/09/22 11:52:03;;;;;;;2.55;0.85;;;;;;;;;;5081005;28;20515;-60
2023/09/22 11:54:34;;;;;;;1.40;0.90;;;;;;;;;;5081304;28;20048;-60
2023/09/22 11:57:02;;;;;;;0.80;0.38;;;;;;;;;;5079281;28;20385;-61
2023/09/22 11:59:31;;;;;;;0.83;0.47;;;;;;;;;;5078120;28;20215;-60
2023/09/22 12:02:00;;;;;;;1.15;0.55;;;;;;;;;;5084677;28;20048;-60
2023/09/22 12:04:27;;;;;;;0.82;0.50;;;;;;;;;;5082074;28;20508;-60
2023/09/22 12:06:54;;;;;;;1.40;0.85;;;;;;;;;;5078418;28;20044;-60
2023/09/22 12:09:21;;;;;;;1.20;0.52;;;;;;;;;;5084715;28;20050;-60
2023/09/22 12:11:49;;;;;;;2.55;0.63;;;;;;;;;;5083053;28;20512;-60
2023/09/22 12:14:16;;;;;;;0.95;0.43;;;;;;;;;;5084673;28;20056;-60
2023/09/22 12:16:43;;;;;;;1.08;0.47;;;;;;;;;;5079897;28;20052;-62
2023/09/22 12:19:10;;;;;;;1.75;0.60;;;;;;;;;;5085660;28;20063;-61
2023/09/22 12:21:36;;;;;;;1.35;0.50;;;;;;;;;;5082393;28;20554;-60
2023/09/22 12:24:04;;;;;;;1.73;0.65;;;;;;;;;;5084904;28;20056;-61
2023/09/22 12:26:31;;;;;;;1.85;0.60;;;;;;;;;;5083539;28;20413;-60
2023/09/22 12:29:03;;;;;;;1.40;0.70;;;;;;;;;;5082022;28;20056;-61
2023/09/22 12:31:31;;;;;;;0.90;0.70;;;;;;;;;;5081839;28;20063;-60
2023/09/22 12:33:58;;;;;;;2.83;0.70;;;;;;;;;;5084590;28;20067;-61
2023/09/22 12:36:24;;;;;;;1.35;0.50;;;;;;;;;;5081086;28;20056;-61
2023/09/22 12:38:52;;;;;;;1.08;0.50;;;;;;;;;;5081481;28;20048;-61
2023/09/22 12:41:19;;;;;;;1.38;0.70;;;;;;;;;;5080679;28;20329;-61
2023/09/22 12:43:49;;;;;;;1.50;0.90;;;;;;;;;;5080552;28;20051;-61
2023/09/22 12:46:17;;;;;;;1.40;0.40;;;;;;;;;;5084477;28;20063;-60
2023/09/22 12:48:44;;;;;;;1.30;0.50;;;;;;;;;;5083425;28;20048;-59
2023/09/22 12:51:13;;;;;;;1.98;0.65;;;;;;;;;;5083807;28;20063;-59
2023/09/22 12:53:41;;;;;;;1.10;0.50;;;;;;;;;;5083957;28;20052;-59
2023/09/22 12:56:09;;;;;;;0.60;0.43;;;;;;;;;;5080962;28;20052;-58
2023/09/22 12:58:36;;;;;;;1.30;0.70;;;;;;;;;;5084752;28;20485;-59
2023/09/22 13:01:04;;;;;;;0.65;0.50;;;;;;;;;;5082426;28;20511;-58
2023/09/22 13:03:33;;;;;;;0.73;0.50;;;;;;;;;;5085915;28;20060;-59
2023/09/22 13:06:01;;;;;;;1.05;0.70;;;;;;;;;;5083694;28;20055;-59
2023/09/22 13:08:28;;;;;;;2.95;0.68;;;;;;;;;;5084065;28;20063;-60
2023/09/22 13:10:55;;;;;;;1.30;0.60;;;;;;;;;;5082211;28;20063;-61
2023/09/22 13:13:22;;;;;;;1.63;0.70;;;;;;;;;;5085827;28;20055;-60
2023/09/22 13:15:52;;;;;;;0.73;0.50;;;;;;;;;;5082172;28;20052;-61
2023/09/22 13:18:19;;;;;;;0.90;0.63;;;;;;;;;;5082515;28;20052;-61
2023/09/22 13:20:47;;;;;;;1.58;0.70;;;;;;;;;;5078007;28;20048;-62
2023/09/22 13:23:15;;;;;;;1.27;0.70;;;;;;;;;;5082764;28;20067;-61
2023/09/22 13:25:45;;;;;;;1.63;0.50;;;;;;;;;;5084470;28;20059;-61
2023/09/22 13:28:15;;;;;;;3.47;0.35;;;;;;;;;;5083865;28;20420;-61
2023/09/22 13:30:42;;;;;;;0.93;0.43;;;;;;;;;;5088250;28;20044;-60
2023/09/22 13:33:14;;;;;;;1.15;0.63;;;;;;;;;;5087248;28;20058;-61
2023/09/22 13:35:42;;;;;;;1.20;0.80;;;;;;;;;;5086299;28;20052;-61
2023/09/22 13:38:12;;;;;;;1.55;0.60;;;;;;;;;;5086402;28;20079;-60
2023/09/22 13:40:40;;;;;;;2.05;0.70;;;;;;;;;;5075080;28;20043;-61
2023/09/22 13:43:07;;;;;;;0.88;0.60;;;;;;;;;;5085592;28;20066;-60
2023/09/22 13:45:35;;;;;;;1.48;0.65;;;;;;;;;;5078933;28;20055;-60
2023/09/22 13:48:02;;;;;;;1.42;0.60;;;;;;;;;;5091493;28;20048;-60
2023/09/22 13:50:29;;;;;;;1.40;0.70;;;;;;;;;;5091038;28;20048;-60
2023/09/22 13:52:56;;;;;;;1.40;0.60;;;;;;;;;;5079120;28;20063;-60
2023/09/22 13:55:24;;;;;;;1.55;0.60;;;;;;;;;;5076407;28;20055;-60
2023/09/22 13:57:51;;;;;;;0.60;0.30;;;;;;;;;;5081380;28;20059;-61
2023/09/22 14:00:18;;;;;;;0.95;0.47;;;;;;;;;;5075280;28;20494;-61
2023/09/22 14:02:45;;;;;;;1.33;0.70;;;;;;;;;;5074744;28;20409;-61
2023/09/22 14:05:13;;;;;;;1.27;0.68;;;;;;;;;;5075490;28;20071;-61
2023/09/22 14:07:40;;;;;;;0.70;0.35;;;;;;;;;;5081950;28;20048;-60
2023/09/22 14:10:08;;;;;;;1.83;0.60;;;;;;;;;;5078855;28;20056;-60
2023/09/22 14:12:36;;;;;;;1.42;0.60;;;;;;;;;;5087907;28;20123;-62
2023/09/22 14:15:03;;;;;;;1.10;0.50;;;;;;;;;;5078984;28;20048;-60
2023/09/22 14:17:30;;;;;;;0.75;0.50;;;;;;;;;;5074287;28;20409;-60
2023/09/22 14:19:57;;;;;;;1.75;0.95;;;;;;;;;;5075494;28;20402;-61
2023/09/22 14:22:24;;;;;;;1.33;0.40;;;;;;;;;;5073646;28;20051;-60
2023/09/22 14:24:52;;;;;;;1.15;0.40;;;;;;;;;;5072871;28;20389;-61
2023/09/22 14:27:20;;;;;;;0.95;0.40;;;;;;;;;;5074062;28;20053;-61
2023/09/22 14:29:48;;;;;;;0.90;0.50;;;;;;;;;;5073585;28;20048;-60
2023/09/22 14:32:15;;;;;;;1.57;0.70;;;;;;;;;;5073199;28;20053;-60
2023/09/22 14:34:41;;;;;;;1.63;0.47;;;;;;;;;;5072567;28;20162;-60
2023/09/22 14:37:08;;;;;;;1.15;0.60;;;;;;;;;;5073364;28;20098;-60
2023/09/22 14:39:35;;;;;;;0.75;0.38;;;;;;;;;;5072933;28;20048;-60
2023/09/22 14:42:03;;;;;;;1.65;0.82;;;;;;;;;;5073720;28;20048;-61
2023/09/22 14:44:29;;;;;;;1.13;0.40;;;;;;;;;;5074393;28;20064;-60
2023/09/22 14:46:58;;;;;;;0.75;0.40;;;;;;;;;;5077133;28;20048;-60
2023/09/22 14:49:24;;;;;;;0.70;0.30;;;;;;;;;;5073611;28;20079;-60